createdAt,value
2019-05-16T00:00:40.397Z,9.60
2019-05-16T00:03:10.145Z,9.60
2019-05-16T00:05:50.365Z,9.60
2019-05-16T00:08:12.978Z,9.60
2019-05-16T00:10:42.285Z,9.60
2019-05-16T00:13:11.769Z,9.60
2019-05-16T00:15:41.479Z,9.60
2019-05-16T00:18:11.295Z,9.60
2019-05-16T00:20:40.856Z,9.60
2019-05-16T00:23:10.464Z,9.60
2019-05-16T00:25:39.928Z,9.60
2019-05-16T00:28:09.417Z,9.60
2019-05-16T00:30:39.210Z,9.70
2019-05-16T00:33:09.058Z,9.60
2019-05-16T00:35:38.952Z,9.60
2019-05-16T00:38:08.884Z,9.60
2019-05-16T00:40:38.939Z,9.60
2019-05-16T00:43:08.573Z,9.60
2019-05-16T00:45:38.632Z,9.60
2019-05-16T00:48:08.966Z,9.50
2019-05-16T00:50:39.303Z,9.60
2019-05-16T00:53:09.248Z,9.50
2019-05-16T00:55:39.957Z,9.50
2019-05-16T00:58:10.273Z,9.50
2019-05-16T01:00:50.528Z,9.60
2019-05-16T01:03:20.577Z,9.60
2019-05-16T01:05:50.570Z,9.50
2019-05-16T01:08:20.316Z,9.50
2019-05-16T01:10:51.497Z,9.40
2019-05-16T01:13:21.423Z,9.40
2019-05-16T01:15:51.066Z,9.30
2019-05-16T01:18:20.593Z,9.40
2019-05-16T01:20:50.200Z,9.40
2019-05-16T01:23:19.747Z,9.40
2019-05-16T01:25:49.322Z,9.40
2019-05-16T01:28:19.009Z,9.40
2019-05-16T01:30:49.075Z,9.60
2019-05-16T01:33:19.409Z,9.50
2019-05-16T01:35:49.240Z,9.40
2019-05-16T01:38:18.801Z,9.50
2019-05-16T01:40:49.116Z,9.50
2019-05-16T01:43:19.003Z,9.50
2019-05-16T01:45:48.889Z,9.50
2019-05-16T01:48:19.319Z,9.50
2019-05-16T01:50:49.105Z,9.50
2019-05-16T01:53:18.733Z,9.40
2019-05-16T01:55:48.923Z,9.30
2019-05-16T01:58:20.122Z,9.40
2019-05-16T02:01:01.987Z,9.30
2019-05-16T02:03:21.284Z,9.40
2019-05-16T02:05:50.867Z,9.30
2019-05-16T02:08:20.488Z,9.30
2019-05-16T02:10:50.067Z,9.30
2019-05-16T02:13:19.561Z,9.20
2019-05-16T02:15:49.098Z,9.20
2019-05-16T02:18:18.766Z,9.30
2019-05-16T02:20:48.361Z,9.20
2019-05-16T02:23:18.738Z,9.20
2019-05-16T02:25:49.278Z,9.20
2019-05-16T02:28:21.030Z,9.20
2019-05-16T02:30:51.546Z,9.20
2019-05-16T02:33:21.792Z,9.30
2019-05-16T02:35:55.417Z,9.20
2019-05-16T02:38:22.600Z,9.20
2019-05-16T02:40:55.242Z,9.20
2019-05-16T02:43:26.168Z,9.20
2019-05-16T02:45:54.562Z,9.20
2019-05-16T02:48:24.150Z,9.10
2019-05-16T02:50:53.679Z,9.10
2019-05-16T02:53:23.256Z,9.00
2019-05-16T02:55:52.823Z,9.00
2019-05-16T02:58:31.436Z,9.10
2019-05-16T03:01:01.983Z,9.10
2019-05-16T03:03:31.818Z,9.20
2019-05-16T03:06:01.905Z,9.10
2019-05-16T03:08:32.410Z,9.10
2019-05-16T03:11:01.699Z,9.10
2019-05-16T03:13:33.435Z,9.10
2019-05-16T03:16:04.568Z,9.10
2019-05-16T03:18:35.309Z,9.00
2019-05-16T03:21:06.997Z,9.00
2019-05-16T03:23:36.332Z,8.90
2019-05-16T03:26:05.738Z,9.00
2019-05-16T03:28:34.984Z,8.90
2019-05-16T03:31:05.939Z,8.80
2019-05-16T03:33:47.328Z,8.80
2019-05-16T03:36:06.221Z,8.80
2019-05-16T03:38:35.551Z,8.80
2019-05-16T03:41:04.853Z,8.80
2019-05-16T03:43:34.118Z,8.70
2019-05-16T03:46:03.494Z,8.70
2019-05-16T03:48:33.176Z,8.60
2019-05-16T03:51:02.412Z,8.60
2019-05-16T03:53:32.055Z,8.50
2019-05-16T03:56:02.019Z,8.60
2019-05-16T03:58:31.475Z,8.60
2019-05-16T04:01:02.220Z,8.60
2019-05-16T04:03:33.120Z,8.60
2019-05-16T04:06:02.821Z,8.60
2019-05-16T04:08:32.099Z,8.60
2019-05-16T04:11:01.707Z,8.70
2019-05-16T04:13:31.849Z,8.70
2019-05-16T04:16:01.750Z,8.60
2019-05-16T04:18:32.034Z,8.60
2019-05-16T04:21:01.659Z,8.60
2019-05-16T04:23:31.605Z,8.60
2019-05-16T04:26:01.178Z,8.50
2019-05-16T04:28:31.791Z,8.60
2019-05-16T04:31:02.248Z,8.60
2019-05-16T04:33:31.742Z,8.60
2019-05-16T04:36:01.505Z,8.60
2019-05-16T04:38:40.119Z,8.60
2019-05-16T04:41:02.037Z,8.70
2019-05-16T04:43:31.716Z,8.60
2019-05-16T04:46:01.729Z,8.60
2019-05-16T04:48:31.494Z,8.70
2019-05-16T04:51:01.539Z,8.80
2019-05-16T04:53:31.794Z,8.80
2019-05-16T04:56:01.917Z,8.80
2019-05-16T04:58:31.898Z,8.80
2019-05-16T05:01:01.870Z,8.80
2019-05-16T05:03:31.744Z,8.70
2019-05-16T05:06:01.446Z,8.80
2019-05-16T05:08:47.471Z,8.80
2019-05-16T05:11:02.034Z,8.90
2019-05-16T05:13:31.341Z,8.80
2019-05-16T05:16:01.277Z,8.80
2019-05-16T05:18:30.911Z,8.90
2019-05-16T05:21:01.105Z,8.90
2019-05-16T05:23:30.573Z,9.00
2019-05-16T05:26:00.475Z,9.00
2019-05-16T05:28:30.095Z,9.10
2019-05-16T05:30:59.900Z,9.00
2019-05-16T05:33:30.389Z,9.10
2019-05-16T05:36:01.164Z,9.20
2019-05-16T05:38:31.171Z,9.20
2019-05-16T05:41:00.603Z,9.20
2019-05-16T05:43:30.499Z,9.30
2019-05-16T05:46:00.808Z,9.30
2019-05-16T05:48:31.035Z,9.30
2019-05-16T05:51:00.502Z,9.30
2019-05-16T05:53:30.149Z,9.30
2019-05-16T05:56:00.510Z,9.40
2019-05-16T05:58:30.851Z,9.40
2019-05-16T06:01:00.744Z,9.40
2019-05-16T06:03:32.719Z,9.30
2019-05-16T06:06:01.319Z,9.30
2019-05-16T06:08:30.937Z,9.30
2019-05-16T06:11:00.847Z,9.30
2019-05-16T06:13:31.060Z,9.30
2019-05-16T06:16:00.651Z,9.30
2019-05-16T06:18:30.595Z,9.30
2019-05-16T06:21:00.727Z,9.30
2019-05-16T06:23:31.083Z,9.40
2019-05-16T06:26:00.815Z,9.50
2019-05-16T06:28:30.905Z,9.60
2019-05-16T06:31:01.943Z,9.70
2019-05-16T06:33:31.336Z,9.70
2019-05-16T06:36:00.620Z,9.80
2019-05-16T06:38:30.100Z,9.90
2019-05-16T06:41:00.354Z,10.00
2019-05-16T06:43:30.208Z,10.00
2019-05-16T06:46:00.588Z,10.10
2019-05-16T06:48:30.559Z,10.30
2019-05-16T06:51:03.014Z,10.30
2019-05-16T06:53:31.074Z,10.30
2019-05-16T06:56:00.339Z,10.40
2019-05-16T06:58:30.410Z,10.50
2019-05-16T07:01:03.460Z,10.60
2019-05-16T07:03:31.978Z,10.60
2019-05-16T07:06:01.399Z,10.40
2019-05-16T07:08:31.160Z,10.20
2019-05-16T07:11:00.674Z,10.20
2019-05-16T07:13:30.543Z,10.40
2019-05-16T07:16:00.529Z,10.50
2019-05-16T07:18:31.159Z,10.70
2019-05-16T07:21:00.530Z,10.60
2019-05-16T07:23:30.105Z,10.60
2019-05-16T07:26:00.756Z,10.50
2019-05-16T07:28:31.668Z,10.60
2019-05-16T07:31:14.851Z,10.60
2019-05-16T07:33:35.082Z,10.70
2019-05-16T07:36:05.732Z,10.70
2019-05-16T07:38:35.114Z,10.50
2019-05-16T07:41:04.442Z,10.60
2019-05-16T07:43:33.788Z,10.60
2019-05-16T07:46:03.060Z,10.70
2019-05-16T07:48:32.407Z,10.90
2019-05-16T07:51:01.714Z,11.00
2019-05-16T07:53:33.173Z,11.20
2019-05-16T07:56:01.983Z,11.30
2019-05-16T07:58:31.564Z,11.30
2019-05-16T08:01:07.298Z,11.50
2019-05-16T08:03:31.848Z,11.70
2019-05-16T08:06:02.045Z,12.00
2019-05-16T08:08:31.850Z,12.30
2019-05-16T08:11:01.773Z,12.50
2019-05-16T08:13:31.278Z,12.70
2019-05-16T08:16:01.365Z,12.70
2019-05-16T08:18:30.917Z,12.60
2019-05-16T08:21:01.194Z,12.80
2019-05-16T08:23:30.993Z,12.90
2019-05-16T08:26:01.433Z,13.00
2019-05-16T08:28:31.384Z,13.00
2019-05-16T08:36:08.059Z,12.90
2019-05-16T08:38:34.405Z,12.80
2019-05-16T08:41:11.950Z,13.00
2019-05-16T08:43:34.687Z,13.20
2019-05-16T08:46:03.972Z,13.30
2019-05-16T08:48:33.318Z,13.20
2019-05-16T08:50:11.953Z,13.10
2019-05-16T08:51:03.916Z,13.30
2019-05-16T08:53:33.517Z,13.60
2019-05-16T08:56:02.921Z,13.50
2019-05-16T08:58:33.166Z,13.40
2019-05-16T09:01:02.985Z,13.60
2019-05-16T09:03:32.878Z,13.50
2019-05-16T09:06:03.187Z,13.60
2019-05-16T09:08:33.130Z,13.60
2019-05-16T09:11:26.623Z,13.70
2019-05-16T09:13:33.566Z,13.70
2019-05-16T09:16:02.833Z,13.30
2019-05-16T09:18:30.423Z,12.90
2019-05-16T09:18:40.671Z,13.30
2019-05-16T09:21:07.057Z,13.50
2019-05-16T09:23:38.078Z,13.70
2019-05-16T09:26:07.342Z,13.80
2019-05-16T09:28:38.989Z,13.90
2019-05-16T09:31:07.991Z,14.00
2019-05-16T09:33:37.597Z,14.20
2019-05-16T09:36:08.060Z,14.40
2019-05-16T09:38:38.449Z,14.00
2019-05-16T09:41:08.550Z,13.80
2019-05-16T09:43:38.850Z,14.30
2019-05-16T09:46:09.113Z,14.50
2019-05-16T09:48:38.458Z,14.60
2019-05-16T09:51:07.771Z,14.70
2019-05-16T09:53:37.148Z,14.70
2019-05-16T09:56:07.140Z,14.70
2019-05-16T09:58:37.233Z,15.10
2019-05-16T10:01:08.464Z,15.30
2019-05-16T10:03:37.968Z,15.60
2019-05-16T10:06:08.063Z,15.70
2019-05-16T10:08:37.825Z,15.90
2019-05-16T10:11:07.151Z,16.30
2019-05-16T10:13:37.548Z,16.80
2019-05-16T10:16:07.376Z,17.40
2019-05-16T10:18:37.114Z,17.60
2019-05-16T10:21:08.005Z,17.50
2019-05-16T10:23:37.623Z,17.00
2019-05-16T10:26:07.087Z,16.80
2019-05-16T10:28:38.231Z,16.80
2019-05-16T10:31:07.636Z,16.50
2019-05-16T10:33:39.028Z,16.50
2019-05-16T10:36:08.520Z,16.50
2019-05-16T10:38:38.148Z,16.20
2019-05-16T10:41:07.545Z,16.40
2019-05-16T10:43:37.156Z,16.90
2019-05-16T10:46:06.751Z,17.10
2019-05-16T10:48:37.554Z,17.00
2019-05-16T10:51:07.767Z,17.10
2019-05-16T10:54:00.926Z,17.20
2019-05-16T10:56:08.771Z,17.10
2019-05-16T10:59:00.715Z,17.00
2019-05-16T11:01:22.233Z,16.80
2019-05-16T11:03:40.047Z,16.70
2019-05-16T11:06:24.461Z,16.70
2019-05-16T11:08:40.330Z,16.90
2019-05-16T11:11:09.662Z,16.80
2019-05-16T11:13:39.005Z,16.50
2019-05-16T11:16:09.531Z,16.60
2019-05-16T11:18:38.992Z,16.50
2019-05-16T11:21:08.332Z,16.50
2019-05-16T11:23:37.671Z,16.50
2019-05-16T11:26:06.988Z,16.50
2019-05-16T11:28:36.987Z,16.50
2019-05-16T11:31:07.624Z,16.60
2019-05-16T11:33:37.259Z,16.50
2019-05-16T11:36:08.068Z,17.00
2019-05-16T11:38:37.980Z,17.40
2019-05-16T11:41:07.594Z,17.20
2019-05-16T11:43:36.970Z,17.50
2019-05-16T11:46:06.296Z,17.80
2019-05-16T11:48:37.642Z,16.80
2019-05-16T11:51:07.322Z,16.90
2019-05-16T11:53:37.908Z,17.40
2019-05-16T11:56:08.294Z,17.90
2019-05-16T11:58:38.074Z,18.40
2019-05-16T12:01:07.854Z,17.80
2019-05-16T12:03:37.686Z,17.60
2019-05-16T12:06:10.527Z,17.50
2019-05-16T12:08:37.985Z,17.80
2019-05-16T12:11:07.282Z,17.90
2019-05-16T12:13:37.060Z,18.40
2019-05-16T12:16:07.556Z,18.60
2019-05-16T12:18:37.507Z,18.70
2019-05-16T12:21:07.741Z,19.00
2019-05-16T12:23:37.719Z,19.00
2019-05-16T12:26:07.872Z,19.50
2019-05-16T12:28:37.546Z,20.20
2019-05-16T12:31:07.344Z,20.30
2019-05-16T12:33:37.747Z,20.30
2019-05-16T12:36:07.791Z,20.80
2019-05-16T12:38:37.885Z,20.10
2019-05-16T12:41:09.013Z,19.70
2019-05-16T12:43:49.498Z,20.00
2019-05-16T12:46:15.297Z,20.40
2019-05-16T12:48:47.231Z,19.40
2019-05-16T12:51:17.258Z,19.50
2019-05-16T12:53:47.819Z,19.40
2019-05-16T12:56:17.685Z,20.30
2019-05-16T12:58:47.324Z,21.00
2019-05-16T13:01:20.551Z,21.30
2019-05-16T13:03:48.239Z,21.80
2019-05-16T13:06:17.648Z,22.20
2019-05-16T13:08:47.617Z,22.10
2019-05-16T13:11:17.809Z,21.90
2019-05-16T13:14:02.401Z,22.10
2019-05-16T13:16:18.208Z,22.10
2019-05-16T13:18:47.625Z,22.10
2019-05-16T13:21:18.441Z,22.30
2019-05-16T13:23:47.945Z,21.80
2019-05-16T13:26:17.663Z,22.00
2019-05-16T13:28:47.734Z,21.90
2019-05-16T13:31:17.399Z,22.00
2019-05-16T13:33:46.739Z,21.90
2019-05-16T13:36:17.385Z,21.20
2019-05-16T13:38:47.991Z,21.50
2019-05-16T13:41:18.217Z,21.60
2019-05-16T13:43:47.840Z,21.50
2019-05-16T13:46:17.335Z,21.20
2019-05-16T13:48:46.623Z,21.00
2019-05-16T13:51:18.915Z,21.20
2019-05-16T13:53:47.310Z,20.90
2019-05-16T13:56:17.547Z,21.10
2019-05-16T13:58:47.369Z,21.30
2019-05-16T14:01:17.253Z,21.50
2019-05-16T14:03:48.223Z,21.10
2019-05-16T14:06:18.649Z,20.90
2019-05-16T14:08:48.240Z,20.40
2019-05-16T14:11:17.624Z,20.50
2019-05-16T14:13:47.149Z,20.70
2019-05-16T14:16:18.059Z,20.30
2019-05-16T14:18:47.518Z,20.70
2019-05-16T14:21:18.147Z,20.50
2019-05-16T14:23:53.154Z,19.80
2019-05-16T14:26:18.976Z,19.30
2019-05-16T14:28:49.106Z,19.30
2019-05-16T14:31:18.641Z,19.00
2019-05-16T14:33:48.008Z,18.90
2019-05-16T14:36:17.405Z,19.00
2019-05-16T14:38:46.941Z,18.80
2019-05-16T14:41:17.381Z,18.40
2019-05-16T14:43:47.161Z,18.40
2019-05-16T14:46:18.419Z,18.40
2019-05-16T14:48:47.596Z,18.40
2019-05-16T14:51:17.959Z,18.40
2019-05-16T14:53:47.847Z,18.50
2019-05-16T14:56:17.185Z,18.50
2019-05-16T14:58:48.537Z,18.40
2019-05-16T15:01:17.762Z,18.40
2019-05-16T15:03:47.479Z,18.20
2019-05-16T15:06:18.288Z,18.20
2019-05-16T15:08:47.870Z,18.20
2019-05-16T15:11:18.009Z,18.30
2019-05-16T15:13:47.668Z,18.30
2019-05-16T15:16:17.128Z,18.20
2019-05-16T15:18:47.428Z,18.40
2019-05-16T15:21:17.629Z,18.50
2019-05-16T15:23:47.182Z,18.50
2019-05-16T15:26:18.138Z,18.40
2019-05-16T15:28:51.118Z,18.20
2019-05-16T15:31:18.478Z,17.80
2019-05-16T15:33:47.759Z,17.50
2019-05-16T15:36:17.043Z,17.60
2019-05-16T15:38:47.242Z,17.80
2019-05-16T15:41:17.132Z,17.70
2019-05-16T15:43:46.784Z,17.50
2019-05-16T15:46:17.246Z,17.40
2019-05-16T15:48:48.823Z,17.30
2019-05-16T15:51:21.024Z,17.20
2019-05-16T15:53:49.062Z,17.10
2019-05-16T15:56:18.401Z,16.80
2019-05-16T15:58:47.744Z,16.80
2019-05-16T16:01:18.518Z,16.60
2019-05-16T16:03:48.019Z,16.30
2019-05-16T16:06:17.891Z,16.20
2019-05-16T16:08:47.764Z,16.10
2019-05-16T16:11:17.339Z,16.00
2019-05-16T16:13:48.375Z,15.80
2019-05-16T16:16:29.281Z,15.80
2019-05-16T16:18:58.618Z,15.60
2019-05-16T16:21:28.140Z,15.50
2019-05-16T16:23:57.414Z,15.40
2019-05-16T16:26:26.862Z,15.40
2019-05-16T16:28:56.268Z,15.00
2019-05-16T16:31:27.372Z,15.10
2019-05-16T16:33:57.249Z,15.30
2019-05-16T16:36:27.586Z,15.40
2019-05-16T16:38:56.935Z,15.20
2019-05-16T16:41:27.645Z,15.00
2019-05-16T16:43:57.165Z,15.00
2019-05-16T16:46:27.079Z,14.80
2019-05-16T16:48:56.948Z,14.60
2019-05-16T16:51:26.873Z,14.60
2019-05-16T16:53:57.000Z,14.70
2019-05-16T16:56:27.458Z,14.60
2019-05-16T16:58:56.858Z,14.50
2019-05-16T17:01:27.226Z,14.50
2019-05-16T17:03:58.319Z,14.50
2019-05-16T17:06:27.642Z,14.30
2019-05-16T17:08:56.967Z,14.20
2019-05-16T17:11:27.077Z,14.30
2019-05-16T17:13:56.613Z,14.40
2019-05-16T17:16:29.072Z,14.50
2019-05-16T17:18:57.498Z,14.50
2019-05-16T17:21:26.896Z,14.20
2019-05-16T17:23:56.923Z,14.10
2019-05-16T17:26:27.411Z,13.90
2019-05-16T17:28:57.199Z,13.70
2019-05-16T17:31:26.817Z,13.50
2019-05-16T17:33:57.763Z,13.20
2019-05-16T17:36:27.404Z,13.10
2019-05-16T17:38:57.171Z,13.20
2019-05-16T17:41:27.295Z,13.30
2019-05-16T17:43:56.802Z,13.30
2019-05-16T17:46:36.697Z,13.20
2019-05-16T17:48:57.140Z,13.00
2019-05-16T17:51:26.460Z,12.70
2019-05-16T17:53:57.116Z,12.40
2019-05-16T17:56:29.496Z,12.40
2019-05-16T17:58:58.775Z,12.30
2019-05-16T18:01:28.213Z,12.40
2019-05-16T18:03:57.522Z,12.30
2019-05-16T18:06:27.246Z,12.30
2019-05-16T18:08:57.608Z,12.30
2019-05-16T18:11:26.960Z,12.20
2019-05-16T18:13:57.015Z,12.10
2019-05-16T18:16:29.430Z,12.10
2019-05-16T18:18:58.668Z,12.10
2019-05-16T18:21:27.989Z,12.10
2019-05-16T18:23:57.332Z,12.20
2019-05-16T18:26:26.901Z,12.10
2019-05-16T18:28:56.341Z,12.20
2019-05-16T18:31:26.627Z,12.20
2019-05-16T18:33:56.589Z,12.20
2019-05-16T18:36:26.495Z,12.00
2019-05-16T18:38:57.425Z,12.00
2019-05-16T18:41:27.225Z,12.00
2019-05-16T18:43:56.758Z,12.00
2019-05-16T18:46:26.923Z,12.00
2019-05-16T18:48:56.578Z,11.90
2019-05-16T18:51:26.473Z,11.90
2019-05-16T18:53:57.053Z,11.80
2019-05-16T18:56:27.204Z,11.70
2019-05-16T18:58:57.308Z,11.60
2019-05-16T19:01:26.960Z,11.60
2019-05-16T19:03:57.645Z,11.50
2019-05-16T19:06:27.596Z,11.50
2019-05-16T19:08:58.431Z,11.60
2019-05-16T19:11:28.495Z,11.60
2019-05-16T19:13:59.376Z,11.60
2019-05-16T19:16:28.956Z,11.60
2019-05-16T19:18:58.589Z,11.70
2019-05-16T19:21:28.054Z,11.60
2019-05-16T19:23:57.413Z,11.60
2019-05-16T19:26:27.263Z,11.60
2019-05-16T19:28:57.189Z,11.60
2019-05-16T19:31:26.926Z,11.40
2019-05-16T19:33:56.658Z,11.40
2019-05-16T19:36:27.094Z,11.30
2019-05-16T19:38:57.026Z,11.00
2019-05-16T19:41:26.556Z,10.90
2019-05-16T19:43:57.170Z,10.80
2019-05-16T19:46:27.241Z,10.80
2019-05-16T19:48:57.146Z,10.70
2019-05-16T19:51:26.953Z,10.60
2019-05-16T19:53:56.723Z,10.50
2019-05-16T19:56:26.975Z,10.40
2019-05-16T19:58:57.099Z,10.40
2019-05-16T20:01:27.405Z,10.30
2019-05-16T20:03:56.960Z,10.10
2019-05-16T20:06:27.445Z,10.10
2019-05-16T20:08:57.147Z,10.00
2019-05-16T20:11:27.615Z,9.90
2019-05-16T20:13:57.269Z,10.00
2019-05-16T20:16:27.354Z,9.90
2019-05-16T20:18:56.909Z,9.90
2019-05-16T20:21:27.512Z,9.80
2019-05-16T20:23:56.947Z,9.80
2019-05-16T20:26:27.331Z,9.70
2019-05-16T20:28:59.510Z,9.70
2019-05-16T20:31:27.803Z,9.60
2019-05-16T20:34:00.613Z,9.60
2019-05-16T20:36:30.043Z,9.50
2019-05-16T20:38:59.479Z,9.40
2019-05-16T20:41:29.158Z,9.40
2019-05-16T20:43:58.786Z,9.30
2019-05-16T20:46:28.293Z,9.30
2019-05-16T20:48:59.045Z,9.30
2019-05-16T20:51:28.646Z,9.30
2019-05-16T20:53:58.315Z,9.20
2019-05-16T20:56:27.738Z,9.20
2019-05-16T20:58:57.608Z,9.30
2019-05-16T21:01:27.176Z,9.30
2019-05-16T21:03:57.305Z,9.30
2019-05-16T21:06:26.846Z,9.30
2019-05-16T21:08:57.466Z,9.30
2019-05-16T21:11:27.184Z,9.30
2019-05-16T21:13:56.726Z,9.40
2019-05-16T21:16:27.000Z,9.40
2019-05-16T21:18:57.471Z,9.50
2019-05-16T21:21:27.507Z,9.50
2019-05-16T21:23:57.240Z,9.30
2019-05-16T21:26:26.600Z,9.30
2019-05-16T21:28:56.943Z,9.20
2019-05-16T21:31:27.572Z,9.20
2019-05-16T21:33:57.124Z,9.20
2019-05-16T21:36:27.398Z,9.20
2019-05-16T21:38:57.215Z,9.20
2019-05-16T21:41:27.127Z,9.20
2019-05-16T21:43:56.638Z,9.20
2019-05-16T21:46:27.724Z,9.10
2019-05-16T21:48:56.973Z,9.20
2019-05-16T21:51:26.773Z,9.20
2019-05-16T21:53:56.413Z,9.20
2019-05-16T21:56:26.612Z,9.20
2019-05-16T21:58:57.449Z,9.20
2019-05-16T22:01:27.188Z,9.20
2019-05-16T22:03:56.832Z,9.10
2019-05-16T22:06:26.235Z,9.20
2019-05-16T22:08:57.410Z,9.20
2019-05-16T22:11:26.577Z,9.20
2019-05-16T22:13:57.038Z,9.20
2019-05-16T22:16:27.854Z,9.10
2019-05-16T22:18:57.356Z,9.10
2019-05-16T22:21:27.046Z,9.00
2019-05-16T22:23:57.069Z,9.00
2019-05-16T22:26:27.034Z,8.90
2019-05-16T22:28:57.622Z,8.80
2019-05-16T22:31:27.083Z,8.70
2019-05-16T22:33:58.387Z,8.70
2019-05-16T22:36:27.427Z,8.70
2019-05-16T22:38:59.421Z,8.70
2019-05-16T22:41:27.791Z,8.70
2019-05-16T22:43:57.161Z,8.60
2019-05-16T22:46:26.856Z,8.60
2019-05-16T22:48:56.326Z,8.60
2019-05-16T22:51:27.199Z,8.60
2019-05-16T22:53:58.691Z,8.60
2019-05-16T22:56:27.658Z,8.60
2019-05-16T22:58:56.989Z,8.60
2019-05-16T23:01:27.191Z,8.60
2019-05-16T23:03:56.724Z,8.60
2019-05-16T23:06:26.937Z,8.60
2019-05-16T23:08:56.431Z,8.50
2019-05-16T23:11:26.994Z,8.40
2019-05-16T23:13:56.841Z,8.30
2019-05-16T23:16:26.786Z,8.30
2019-05-16T23:18:57.127Z,8.20
2019-05-16T23:21:27.714Z,8.30
2019-05-16T23:23:57.209Z,8.30
2019-05-16T23:26:27.332Z,8.30
2019-05-16T23:28:56.668Z,8.30
2019-05-16T23:31:27.140Z,8.30
2019-05-16T23:33:56.663Z,8.30
2019-05-16T23:36:26.504Z,8.30
2019-05-16T23:38:56.798Z,8.20
2019-05-16T23:41:27.397Z,8.20
2019-05-16T23:43:56.991Z,8.10
2019-05-16T23:46:26.385Z,8.20
2019-05-16T23:48:56.613Z,8.10
2019-05-16T23:51:27.626Z,8.10
2019-05-16T23:53:57.185Z,8.10
2019-05-16T23:56:27.341Z,8.10
2019-05-16T23:58:57.113Z,8.10
